sensor_id;sensor_type;location;lat;lon;timestamp;P1;durP1;ratioP1;P2;durP2;ratioP2
23282;SDS011;11810;51.178;3.878;2023-06-22T00:02:17;9.45;;;5.60;;
23282;SDS011;11810;51.178;3.878;2023-06-22T00:04:44;9.43;;;5.40;;
23282;SDS011;11810;51.178;3.878;2023-06-22T00:07:10;9.35;;;5.80;;
23282;SDS011;11810;51.178;3.878;2023-06-22T00:09:36;11.35;;;6.10;;
23282;SDS011;11810;51.178;3.878;2023-06-22T00:12:02;11.23;;;5.75;;
23282;SDS011;11810;51.178;3.878;2023-06-22T00:14:28;12.00;;;6.00;;
23282;SDS011;11810;51.178;3.878;2023-06-22T00:16:54;7.25;;;5.78;;
23282;SDS011;11810;51.178;3.878;2023-06-22T00:19:20;8.13;;;6.53;;
23282;SDS011;11810;51.178;3.878;2023-06-22T00:21:47;8.63;;;6.18;;
23282;SDS011;11810;51.178;3.878;2023-06-22T00:24:20;9.35;;;5.90;;
23282;SDS011;11810;51.178;3.878;2023-06-22T00:26:50;8.13;;;5.68;;
23282;SDS011;11810;51.178;3.878;2023-06-22T00:29:16;8.07;;;5.53;;
23282;SDS011;11810;51.178;3.878;2023-06-22T00:31:43;8.35;;;5.28;;
23282;SDS011;11810;51.178;3.878;2023-06-22T00:34:09;8.43;;;5.88;;
23282;SDS011;11810;51.178;3.878;2023-06-22T00:36:35;10.60;;;6.38;;
23282;SDS011;11810;51.178;3.878;2023-06-22T00:39:02;10.07;;;5.85;;
23282;SDS011;11810;51.178;3.878;2023-06-22T00:41:28;11.55;;;6.45;;
23282;SDS011;11810;51.178;3.878;2023-06-22T00:43:54;10.43;;;6.13;;
23282;SDS011;11810;51.178;3.878;2023-06-22T00:46:21;10.10;;;6.10;;
23282;SDS011;11810;51.178;3.878;2023-06-22T00:48:48;10.35;;;6.20;;
23282;SDS011;11810;51.178;3.878;2023-06-22T00:51:15;9.43;;;6.50;;
23282;SDS011;11810;51.178;3.878;2023-06-22T00:53:41;9.02;;;5.95;;
23282;SDS011;11810;51.178;3.878;2023-06-22T00:56:08;7.78;;;5.82;;
23282;SDS011;11810;51.178;3.878;2023-06-22T00:58:36;7.85;;;5.50;;
23282;SDS011;11810;51.178;3.878;2023-06-22T01:01:02;13.07;;;6.20;;
23282;SDS011;11810;51.178;3.878;2023-06-22T01:03:28;9.68;;;5.53;;
23282;SDS011;11810;51.178;3.878;2023-06-22T01:05:56;13.27;;;6.47;;
23282;SDS011;11810;51.178;3.878;2023-06-22T01:08:38;11.23;;;5.60;;
23282;SDS011;11810;51.178;3.878;2023-06-22T01:11:20;12.82;;;6.78;;
23282;SDS011;11810;51.178;3.878;2023-06-22T01:13:50;9.35;;;6.13;;
23282;SDS011;11810;51.178;3.878;2023-06-22T01:16:20;6.50;;;5.50;;
23282;SDS011;11810;51.178;3.878;2023-06-22T01:18:51;10.65;;;5.40;;
23282;SDS011;11810;51.178;3.878;2023-06-22T01:21:20;9.88;;;5.60;;
23282;SDS011;11810;51.178;3.878;2023-06-22T01:26:19;8.20;;;5.53;;
23282;SDS011;11810;51.178;3.878;2023-06-22T01:28:56;9.38;;;5.15;;
23282;SDS011;11810;51.178;3.878;2023-06-22T01:31:24;10.75;;;5.88;;
23282;SDS011;11810;51.178;3.878;2023-06-22T01:33:55;9.23;;;5.97;;
23282;SDS011;11810;51.178;3.878;2023-06-22T01:36:30;8.15;;;5.45;;
23282;SDS011;11810;51.178;3.878;2023-06-22T01:38:58;7.28;;;5.40;;
23282;SDS011;11810;51.178;3.878;2023-06-22T01:41:25;8.23;;;5.72;;
23282;SDS011;11810;51.178;3.878;2023-06-22T01:43:53;11.48;;;6.25;;
23282;SDS011;11810;51.178;3.878;2023-06-22T01:46:20;11.57;;;5.55;;
23282;SDS011;11810;51.178;3.878;2023-06-22T01:48:47;9.82;;;6.30;;
23282;SDS011;11810;51.178;3.878;2023-06-22T01:51:13;8.18;;;6.35;;
23282;SDS011;11810;51.178;3.878;2023-06-22T01:53:40;11.68;;;6.00;;
23282;SDS011;11810;51.178;3.878;2023-06-22T01:56:06;10.50;;;6.93;;
23282;SDS011;11810;51.178;3.878;2023-06-22T01:58:32;10.35;;;6.50;;
23282;SDS011;11810;51.178;3.878;2023-06-22T02:01:11;9.75;;;6.82;;
23282;SDS011;11810;51.178;3.878;2023-06-22T02:03:45;12.43;;;7.50;;
23282;SDS011;11810;51.178;3.878;2023-06-22T02:06:26;10.95;;;6.53;;
23282;SDS011;11810;51.178;3.878;2023-06-22T02:09:01;9.60;;;6.05;;
23282;SDS011;11810;51.178;3.878;2023-06-22T02:11:29;9.80;;;6.70;;
23282;SDS011;11810;51.178;3.878;2023-06-22T02:13:56;10.90;;;7.20;;
23282;SDS011;11810;51.178;3.878;2023-06-22T02:16:23;7.63;;;6.50;;
23282;SDS011;11810;51.178;3.878;2023-06-22T02:18:50;7.82;;;6.43;;
23282;SDS011;11810;51.178;3.878;2023-06-22T02:21:17;12.45;;;6.50;;
23282;SDS011;11810;51.178;3.878;2023-06-22T02:23:44;8.07;;;5.80;;
23282;SDS011;11810;51.178;3.878;2023-06-22T02:26:09;9.60;;;6.35;;
23282;SDS011;11810;51.178;3.878;2023-06-22T02:28:36;13.70;;;6.63;;
23282;SDS011;11810;51.178;3.878;2023-06-22T02:31:02;12.90;;;7.35;;
23282;SDS011;11810;51.178;3.878;2023-06-22T02:33:27;11.43;;;7.57;;
23282;SDS011;11810;51.178;3.878;2023-06-22T02:35:53;13.82;;;7.63;;
23282;SDS011;11810;51.178;3.878;2023-06-22T02:38:19;12.90;;;7.72;;
23282;SDS011;11810;51.178;3.878;2023-06-22T02:40:46;11.50;;;7.78;;
23282;SDS011;11810;51.178;3.878;2023-06-22T02:43:12;11.18;;;8.40;;
23282;SDS011;11810;51.178;3.878;2023-06-22T02:45:38;10.13;;;8.38;;
23282;SDS011;11810;51.178;3.878;2023-06-22T02:48:04;12.70;;;9.10;;
23282;SDS011;11810;51.178;3.878;2023-06-22T02:50:30;13.10;;;8.20;;
23282;SDS011;11810;51.178;3.878;2023-06-22T02:52:56;11.18;;;8.05;;
23282;SDS011;11810;51.178;3.878;2023-06-22T02:55:23;16.77;;;8.00;;
23282;SDS011;11810;51.178;3.878;2023-06-22T02:57:49;12.07;;;8.50;;
23282;SDS011;11810;51.178;3.878;2023-06-22T03:00:17;10.77;;;7.80;;
23282;SDS011;11810;51.178;3.878;2023-06-22T03:02:45;11.98;;;7.63;;
23282;SDS011;11810;51.178;3.878;2023-06-22T03:05:12;10.18;;;7.65;;
23282;SDS011;11810;51.178;3.878;2023-06-22T03:07:43;7.90;;;6.80;;
23282;SDS011;11810;51.178;3.878;2023-06-22T03:10:10;11.68;;;9.25;;
23282;SDS011;11810;51.178;3.878;2023-06-22T03:12:37;12.63;;;8.75;;
23282;SDS011;11810;51.178;3.878;2023-06-22T03:15:05;9.30;;;8.13;;
23282;SDS011;11810;51.178;3.878;2023-06-22T03:17:31;12.40;;;8.45;;
23282;SDS011;11810;51.178;3.878;2023-06-22T03:19:58;10.48;;;8.35;;
23282;SDS011;11810;51.178;3.878;2023-06-22T03:22:24;15.75;;;9.55;;
23282;SDS011;11810;51.178;3.878;2023-06-22T03:24:50;14.48;;;9.63;;
23282;SDS011;11810;51.178;3.878;2023-06-22T03:27:16;16.38;;;10.10;;
23282;SDS011;11810;51.178;3.878;2023-06-22T03:29:42;16.23;;;10.20;;
23282;SDS011;11810;51.178;3.878;2023-06-22T03:32:09;12.00;;;10.23;;
23282;SDS011;11810;51.178;3.878;2023-06-22T03:34:35;22.73;;;11.70;;
23282;SDS011;11810;51.178;3.878;2023-06-22T03:37:01;18.80;;;11.63;;
23282;SDS011;11810;51.178;3.878;2023-06-22T03:39:28;21.27;;;12.38;;
23282;SDS011;11810;51.178;3.878;2023-06-22T03:41:54;16.85;;;11.88;;
23282;SDS011;11810;51.178;3.878;2023-06-22T03:44:20;17.00;;;12.00;;
23282;SDS011;11810;51.178;3.878;2023-06-22T03:46:46;19.00;;;11.45;;
23282;SDS011;11810;51.178;3.878;2023-06-22T03:49:11;17.08;;;12.32;;
23282;SDS011;11810;51.178;3.878;2023-06-22T03:51:37;26.20;;;13.90;;
23282;SDS011;11810;51.178;3.878;2023-06-22T03:54:04;17.40;;;12.20;;
23282;SDS011;11810;51.178;3.878;2023-06-22T03:56:30;17.98;;;12.70;;
23282;SDS011;11810;51.178;3.878;2023-06-22T03:58:56;18.50;;;13.20;;
23282;SDS011;11810;51.178;3.878;2023-06-22T04:01:23;24.88;;;14.05;;
23282;SDS011;11810;51.178;3.878;2023-06-22T04:03:48;22.63;;;15.25;;
23282;SDS011;11810;51.178;3.878;2023-06-22T04:06:15;20.88;;;13.98;;
23282;SDS011;11810;51.178;3.878;2023-06-22T04:08:41;18.90;;;13.13;;
23282;SDS011;11810;51.178;3.878;2023-06-22T04:11:07;27.45;;;15.40;;
23282;SDS011;11810;51.178;3.878;2023-06-22T04:13:33;23.52;;;14.35;;
23282;SDS011;11810;51.178;3.878;2023-06-22T04:15:59;20.85;;;14.05;;
23282;SDS011;11810;51.178;3.878;2023-06-22T04:18:26;23.92;;;13.70;;
23282;SDS011;11810;51.178;3.878;2023-06-22T04:20:52;23.63;;;14.77;;
23282;SDS011;11810;51.178;3.878;2023-06-22T04:23:18;27.17;;;14.60;;
23282;SDS011;11810;51.178;3.878;2023-06-22T04:25:44;24.08;;;14.38;;
23282;SDS011;11810;51.178;3.878;2023-06-22T04:28:09;28.48;;;16.85;;
23282;SDS011;11810;51.178;3.878;2023-06-22T04:30:37;26.67;;;14.63;;
23282;SDS011;11810;51.178;3.878;2023-06-22T04:33:12;29.83;;;16.42;;
23282;SDS011;11810;51.178;3.878;2023-06-22T04:35:44;23.48;;;15.23;;
23282;SDS011;11810;51.178;3.878;2023-06-22T04:38:11;23.95;;;15.50;;
23282;SDS011;11810;51.178;3.878;2023-06-22T04:40:41;23.77;;;15.48;;
23282;SDS011;11810;51.178;3.878;2023-06-22T04:43:07;21.63;;;15.13;;
23282;SDS011;11810;51.178;3.878;2023-06-22T04:45:35;26.67;;;15.50;;
23282;SDS011;11810;51.178;3.878;2023-06-22T04:48:03;20.35;;;14.65;;
23282;SDS011;11810;51.178;3.878;2023-06-22T04:50:30;29.42;;;15.93;;
23282;SDS011;11810;51.178;3.878;2023-06-22T04:52:56;23.33;;;15.88;;
23282;SDS011;11810;51.178;3.878;2023-06-22T04:55:22;23.55;;;15.52;;
23282;SDS011;11810;51.178;3.878;2023-06-22T04:57:50;26.67;;;15.80;;
23282;SDS011;11810;51.178;3.878;2023-06-22T05:00:19;23.38;;;15.35;;
23282;SDS011;11810;51.178;3.878;2023-06-22T05:02:48;31.90;;;18.02;;
23282;SDS011;11810;51.178;3.878;2023-06-22T05:05:14;28.00;;;17.38;;
23282;SDS011;11810;51.178;3.878;2023-06-22T05:07:44;25.15;;;16.55;;
23282;SDS011;11810;51.178;3.878;2023-06-22T05:10:18;29.63;;;17.25;;
23282;SDS011;11810;51.178;3.878;2023-06-22T05:12:45;31.10;;;17.42;;
23282;SDS011;11810;51.178;3.878;2023-06-22T05:15:11;27.27;;;16.25;;
23282;SDS011;11810;51.178;3.878;2023-06-22T05:17:38;28.35;;;18.05;;
23282;SDS011;11810;51.178;3.878;2023-06-22T05:20:10;27.45;;;17.60;;
23282;SDS011;11810;51.178;3.878;2023-06-22T05:22:38;26.42;;;17.58;;
23282;SDS011;11810;51.178;3.878;2023-06-22T05:25:08;27.65;;;17.45;;
23282;SDS011;11810;51.178;3.878;2023-06-22T05:27:35;27.60;;;17.33;;
23282;SDS011;11810;51.178;3.878;2023-06-22T05:30:05;28.52;;;16.80;;
23282;SDS011;11810;51.178;3.878;2023-06-22T05:32:32;24.33;;;16.35;;
23282;SDS011;11810;51.178;3.878;2023-06-22T05:34:58;20.50;;;14.90;;
23282;SDS011;11810;51.178;3.878;2023-06-22T05:37:24;22.13;;;16.30;;
23282;SDS011;11810;51.178;3.878;2023-06-22T05:39:51;23.55;;;16.10;;
23282;SDS011;11810;51.178;3.878;2023-06-22T05:42:17;20.40;;;15.63;;
23282;SDS011;11810;51.178;3.878;2023-06-22T05:44:43;22.50;;;15.50;;
23282;SDS011;11810;51.178;3.878;2023-06-22T05:47:09;22.23;;;15.13;;
23282;SDS011;11810;51.178;3.878;2023-06-22T05:49:35;22.08;;;16.33;;
23282;SDS011;11810;51.178;3.878;2023-06-22T05:52:01;22.67;;;16.08;;
23282;SDS011;11810;51.178;3.878;2023-06-22T05:54:27;24.83;;;17.05;;
23282;SDS011;11810;51.178;3.878;2023-06-22T05:56:53;23.65;;;16.05;;
23282;SDS011;11810;51.178;3.878;2023-06-22T05:59:19;25.90;;;16.45;;
23282;SDS011;11810;51.178;3.878;2023-06-22T06:01:45;23.23;;;16.20;;
23282;SDS011;11810;51.178;3.878;2023-06-22T06:04:15;23.27;;;16.33;;
23282;SDS011;11810;51.178;3.878;2023-06-22T06:06:44;26.73;;;17.30;;
23282;SDS011;11810;51.178;3.878;2023-06-22T06:09:12;22.38;;;18.00;;
23282;SDS011;11810;51.178;3.878;2023-06-22T06:11:39;22.17;;;16.58;;
23282;SDS011;11810;51.178;3.878;2023-06-22T06:14:05;22.33;;;16.70;;
23282;SDS011;11810;51.178;3.878;2023-06-22T06:16:31;22.15;;;17.13;;
23282;SDS011;11810;51.178;3.878;2023-06-22T06:18:57;25.58;;;18.73;;
23282;SDS011;11810;51.178;3.878;2023-06-22T06:21:23;25.10;;;16.65;;
23282;SDS011;11810;51.178;3.878;2023-06-22T06:23:49;23.95;;;17.63;;
23282;SDS011;11810;51.178;3.878;2023-06-22T06:26:15;25.08;;;17.98;;
23282;SDS011;11810;51.178;3.878;2023-06-22T06:28:42;25.70;;;17.92;;
23282;SDS011;11810;51.178;3.878;2023-06-22T06:31:08;23.13;;;17.08;;
23282;SDS011;11810;51.178;3.878;2023-06-22T06:33:35;22.60;;;17.98;;
23282;SDS011;11810;51.178;3.878;2023-06-22T06:36:01;24.10;;;18.35;;
23282;SDS011;11810;51.178;3.878;2023-06-22T06:38:29;24.60;;;18.15;;
23282;SDS011;11810;51.178;3.878;2023-06-22T06:40:56;23.88;;;18.98;;
23282;SDS011;11810;51.178;3.878;2023-06-22T06:43:23;26.40;;;18.48;;
23282;SDS011;11810;51.178;3.878;2023-06-22T06:45:50;25.88;;;19.00;;
23282;SDS011;11810;51.178;3.878;2023-06-22T06:48:16;26.83;;;19.45;;
23282;SDS011;11810;51.178;3.878;2023-06-22T06:50:42;23.10;;;17.90;;
23282;SDS011;11810;51.178;3.878;2023-06-22T06:53:09;22.83;;;19.10;;
23282;SDS011;11810;51.178;3.878;2023-06-22T06:55:35;26.45;;;18.95;;
23282;SDS011;11810;51.178;3.878;2023-06-22T06:58:01;23.17;;;18.33;;
23282;SDS011;11810;51.178;3.878;2023-06-22T07:00:32;25.55;;;17.75;;
23282;SDS011;11810;51.178;3.878;2023-06-22T07:02:59;23.15;;;19.45;;
23282;SDS011;11810;51.178;3.878;2023-06-22T07:05:24;21.77;;;18.33;;
23282;SDS011;11810;51.178;3.878;2023-06-22T07:07:50;23.35;;;18.83;;
23282;SDS011;11810;51.178;3.878;2023-06-22T07:10:16;24.80;;;18.30;;
23282;SDS011;11810;51.178;3.878;2023-06-22T07:12:42;25.05;;;19.45;;
23282;SDS011;11810;51.178;3.878;2023-06-22T07:15:08;24.55;;;19.02;;
23282;SDS011;11810;51.178;3.878;2023-06-22T07:17:35;23.92;;;18.48;;
23282;SDS011;11810;51.178;3.878;2023-06-22T07:20:02;24.58;;;19.25;;
23282;SDS011;11810;51.178;3.878;2023-06-22T07:22:35;23.40;;;18.13;;
23282;SDS011;11810;51.178;3.878;2023-06-22T07:25:02;24.52;;;19.60;;
23282;SDS011;11810;51.178;3.878;2023-06-22T07:28:16;29.50;;;18.92;;
23282;SDS011;11810;51.178;3.878;2023-06-22T07:30:28;23.77;;;18.65;;
23282;SDS011;11810;51.178;3.878;2023-06-22T07:32:55;23.80;;;18.55;;
23282;SDS011;11810;51.178;3.878;2023-06-22T07:35:21;30.10;;;19.83;;
23282;SDS011;11810;51.178;3.878;2023-06-22T07:37:47;26.60;;;20.77;;
23282;SDS011;11810;51.178;3.878;2023-06-22T07:40:13;24.58;;;19.70;;
23282;SDS011;11810;51.178;3.878;2023-06-22T07:42:39;24.50;;;19.60;;
23282;SDS011;11810;51.178;3.878;2023-06-22T07:45:06;25.25;;;20.98;;
23282;SDS011;11810;51.178;3.878;2023-06-22T07:47:33;23.73;;;19.90;;
23282;SDS011;11810;51.178;3.878;2023-06-22T07:50:00;26.27;;;20.80;;
23282;SDS011;11810;51.178;3.878;2023-06-22T07:52:27;24.52;;;20.38;;
23282;SDS011;11810;51.178;3.878;2023-06-22T07:54:54;22.73;;;18.63;;
23282;SDS011;11810;51.178;3.878;2023-06-22T07:57:20;25.02;;;19.70;;
23282;SDS011;11810;51.178;3.878;2023-06-22T07:59:46;25.55;;;20.38;;
23282;SDS011;11810;51.178;3.878;2023-06-22T08:02:12;25.15;;;19.00;;
23282;SDS011;11810;51.178;3.878;2023-06-22T08:04:38;26.38;;;19.83;;
23282;SDS011;11810;51.178;3.878;2023-06-22T08:07:06;23.67;;;19.88;;
23282;SDS011;11810;51.178;3.878;2023-06-22T08:09:32;28.38;;;20.10;;
23282;SDS011;11810;51.178;3.878;2023-06-22T08:11:58;28.38;;;20.52;;
23282;SDS011;11810;51.178;3.878;2023-06-22T08:14:27;24.20;;;20.70;;
23282;SDS011;11810;51.178;3.878;2023-06-22T08:16:54;23.95;;;19.80;;
23282;SDS011;11810;51.178;3.878;2023-06-22T08:19:20;27.75;;;20.40;;
23282;SDS011;11810;51.178;3.878;2023-06-22T08:21:46;25.27;;;21.15;;
23282;SDS011;11810;51.178;3.878;2023-06-22T08:24:12;31.80;;;20.33;;
23282;SDS011;11810;51.178;3.878;2023-06-22T08:26:38;26.08;;;20.60;;
23282;SDS011;11810;51.178;3.878;2023-06-22T08:29:04;23.85;;;19.92;;
23282;SDS011;11810;51.178;3.878;2023-06-22T08:31:30;29.73;;;21.25;;
23282;SDS011;11810;51.178;3.878;2023-06-22T08:33:58;26.00;;;20.83;;
23282;SDS011;11810;51.178;3.878;2023-06-22T08:36:24;27.60;;;20.70;;
23282;SDS011;11810;51.178;3.878;2023-06-22T08:38:50;28.30;;;21.10;;
23282;SDS011;11810;51.178;3.878;2023-06-22T08:41:17;25.80;;;21.17;;
23282;SDS011;11810;51.178;3.878;2023-06-22T08:43:44;24.13;;;19.88;;
23282;SDS011;11810;51.178;3.878;2023-06-22T08:46:10;22.77;;;19.60;;
23282;SDS011;11810;51.178;3.878;2023-06-22T08:48:36;31.70;;;21.13;;
23282;SDS011;11810;51.178;3.878;2023-06-22T08:51:02;27.48;;;19.80;;
23282;SDS011;11810;51.178;3.878;2023-06-22T08:53:30;25.13;;;20.23;;
23282;SDS011;11810;51.178;3.878;2023-06-22T08:55:55;25.25;;;19.55;;
23282;SDS011;11810;51.178;3.878;2023-06-22T08:58:21;22.92;;;18.73;;
23282;SDS011;11810;51.178;3.878;2023-06-22T09:00:49;26.02;;;18.50;;
23282;SDS011;11810;51.178;3.878;2023-06-22T09:03:16;22.63;;;17.80;;
23282;SDS011;11810;51.178;3.878;2023-06-22T09:05:42;22.10;;;17.50;;
23282;SDS011;11810;51.178;3.878;2023-06-22T09:08:08;21.73;;;16.70;;
23282;SDS011;11810;51.178;3.878;2023-06-22T09:10:34;21.80;;;16.48;;
23282;SDS011;11810;51.178;3.878;2023-06-22T09:13:00;19.92;;;16.15;;
23282;SDS011;11810;51.178;3.878;2023-06-22T09:15:26;17.50;;;15.20;;
23282;SDS011;11810;51.178;3.878;2023-06-22T09:17:52;25.08;;;15.32;;
23282;SDS011;11810;51.178;3.878;2023-06-22T09:20:19;18.45;;;15.50;;
23282;SDS011;11810;51.178;3.878;2023-06-22T09:22:45;17.80;;;14.00;;
23282;SDS011;11810;51.178;3.878;2023-06-22T09:25:11;21.60;;;14.77;;
23282;SDS011;11810;51.178;3.878;2023-06-22T09:27:37;21.52;;;14.57;;
23282;SDS011;11810;51.178;3.878;2023-06-22T09:30:04;18.63;;;13.98;;
23282;SDS011;11810;51.178;3.878;2023-06-22T09:32:30;17.60;;;13.68;;
23282;SDS011;11810;51.178;3.878;2023-06-22T09:34:56;17.63;;;13.82;;
23282;SDS011;11810;51.178;3.878;2023-06-22T09:37:22;20.42;;;14.10;;
23282;SDS011;11810;51.178;3.878;2023-06-22T09:39:48;19.70;;;14.45;;
23282;SDS011;11810;51.178;3.878;2023-06-22T09:42:14;17.27;;;13.50;;
23282;SDS011;11810;51.178;3.878;2023-06-22T09:44:40;20.20;;;14.10;;
23282;SDS011;11810;51.178;3.878;2023-06-22T09:47:06;17.83;;;14.00;;
23282;SDS011;11810;51.178;3.878;2023-06-22T09:49:32;20.35;;;14.63;;
23282;SDS011;11810;51.178;3.878;2023-06-22T09:51:58;20.27;;;15.23;;
23282;SDS011;11810;51.178;3.878;2023-06-22T09:54:24;21.23;;;14.43;;
23282;SDS011;11810;51.178;3.878;2023-06-22T09:56:50;19.95;;;14.60;;
23282;SDS011;11810;51.178;3.878;2023-06-22T09:59:16;20.00;;;15.18;;
23282;SDS011;11810;51.178;3.878;2023-06-22T10:01:42;27.65;;;15.63;;
23282;SDS011;11810;51.178;3.878;2023-06-22T10:04:08;22.27;;;15.25;;
23282;SDS011;11810;51.178;3.878;2023-06-22T10:06:34;23.65;;;16.38;;
23282;SDS011;11810;51.178;3.878;2023-06-22T10:09:00;24.58;;;15.98;;
23282;SDS011;11810;51.178;3.878;2023-06-22T10:11:26;25.20;;;14.90;;
23282;SDS011;11810;51.178;3.878;2023-06-22T10:13:55;20.85;;;16.67;;
23282;SDS011;11810;51.178;3.878;2023-06-22T10:16:23;26.67;;;17.55;;
23282;SDS011;11810;51.178;3.878;2023-06-22T10:18:55;24.43;;;17.10;;
23282;SDS011;11810;51.178;3.878;2023-06-22T10:21:21;25.20;;;17.38;;
23282;SDS011;11810;51.178;3.878;2023-06-22T10:23:47;23.75;;;18.83;;
23282;SDS011;11810;51.178;3.878;2023-06-22T10:26:12;27.02;;;18.90;;
23282;SDS011;11810;51.178;3.878;2023-06-22T10:28:38;26.30;;;18.88;;
23282;SDS011;11810;51.178;3.878;2023-06-22T10:31:04;34.25;;;18.48;;
23282;SDS011;11810;51.178;3.878;2023-06-22T10:33:30;25.63;;;19.08;;
23282;SDS011;11810;51.178;3.878;2023-06-22T10:35:56;27.95;;;19.63;;
23282;SDS011;11810;51.178;3.878;2023-06-22T10:38:22;26.13;;;18.77;;
23282;SDS011;11810;51.178;3.878;2023-06-22T10:40:48;27.20;;;19.77;;
23282;SDS011;11810;51.178;3.878;2023-06-22T10:43:14;25.67;;;16.80;;
23282;SDS011;11810;51.178;3.878;2023-06-22T10:45:40;28.45;;;17.20;;
23282;SDS011;11810;51.178;3.878;2023-06-22T10:48:05;24.15;;;17.63;;
23282;SDS011;11810;51.178;3.878;2023-06-22T10:50:31;21.67;;;17.15;;
23282;SDS011;11810;51.178;3.878;2023-06-22T10:52:57;25.70;;;17.17;;
23282;SDS011;11810;51.178;3.878;2023-06-22T10:55:23;25.20;;;17.80;;
23282;SDS011;11810;51.178;3.878;2023-06-22T10:57:49;26.63;;;17.48;;
23282;SDS011;11810;51.178;3.878;2023-06-22T11:00:15;22.40;;;16.60;;
23282;SDS011;11810;51.178;3.878;2023-06-22T11:02:41;22.60;;;16.10;;
23282;SDS011;11810;51.178;3.878;2023-06-22T11:05:07;24.98;;;16.10;;
23282;SDS011;11810;51.178;3.878;2023-06-22T11:07:33;20.80;;;15.43;;
23282;SDS011;11810;51.178;3.878;2023-06-22T11:09:59;24.92;;;15.90;;
23282;SDS011;11810;51.178;3.878;2023-06-22T11:12:26;20.65;;;13.52;;
23282;SDS011;11810;51.178;3.878;2023-06-22T11:14:52;17.67;;;13.07;;
23282;SDS011;11810;51.178;3.878;2023-06-22T11:17:18;23.13;;;13.85;;
23282;SDS011;11810;51.178;3.878;2023-06-22T11:19:44;14.95;;;12.15;;
23282;SDS011;11810;51.178;3.878;2023-06-22T11:22:10;20.25;;;12.75;;
23282;SDS011;11810;51.178;3.878;2023-06-22T11:24:36;18.85;;;12.05;;
23282;SDS011;11810;51.178;3.878;2023-06-22T11:27:02;18.90;;;12.25;;
23282;SDS011;11810;51.178;3.878;2023-06-22T11:29:28;17.25;;;11.40;;
23282;SDS011;11810;51.178;3.878;2023-06-22T11:31:54;17.67;;;11.55;;
23282;SDS011;11810;51.178;3.878;2023-06-22T11:34:20;18.90;;;12.02;;
23282;SDS011;11810;51.178;3.878;2023-06-22T11:36:46;18.08;;;11.38;;
23282;SDS011;11810;51.178;3.878;2023-06-22T11:39:14;15.23;;;11.05;;
23282;SDS011;11810;51.178;3.878;2023-06-22T11:41:40;21.05;;;12.15;;
23282;SDS011;11810;51.178;3.878;2023-06-22T11:44:07;17.35;;;11.23;;
23282;SDS011;11810;51.178;3.878;2023-06-22T11:46:33;12.27;;;9.93;;
23282;SDS011;11810;51.178;3.878;2023-06-22T11:49:00;14.23;;;10.52;;
23282;SDS011;11810;51.178;3.878;2023-06-22T11:51:27;14.30;;;10.18;;
23282;SDS011;11810;51.178;3.878;2023-06-22T11:53:53;14.15;;;10.25;;
23282;SDS011;11810;51.178;3.878;2023-06-22T11:56:19;13.15;;;10.57;;
23282;SDS011;11810;51.178;3.878;2023-06-22T11:58:45;22.70;;;11.85;;
23282;SDS011;11810;51.178;3.878;2023-06-22T12:01:11;14.50;;;11.07;;
23282;SDS011;11810;51.178;3.878;2023-06-22T12:03:40;19.75;;;12.05;;
23282;SDS011;11810;51.178;3.878;2023-06-22T12:06:06;16.42;;;11.70;;
23282;SDS011;11810;51.178;3.878;2023-06-22T12:08:32;17.85;;;11.95;;
23282;SDS011;11810;51.178;3.878;2023-06-22T12:10:58;17.40;;;10.88;;
23282;SDS011;11810;51.178;3.878;2023-06-22T12:13:24;14.98;;;11.85;;
23282;SDS011;11810;51.178;3.878;2023-06-22T12:15:50;18.77;;;11.23;;
23282;SDS011;11810;51.178;3.878;2023-06-22T12:18:17;16.77;;;11.43;;
23282;SDS011;11810;51.178;3.878;2023-06-22T12:20:45;13.52;;;11.63;;
23282;SDS011;11810;51.178;3.878;2023-06-22T12:23:12;14.70;;;11.00;;
23282;SDS011;11810;51.178;3.878;2023-06-22T12:25:38;16.52;;;11.07;;
23282;SDS011;11810;51.178;3.878;2023-06-22T12:28:04;15.85;;;12.18;;
23282;SDS011;11810;51.178;3.878;2023-06-22T12:30:30;13.88;;;10.60;;
23282;SDS011;11810;51.178;3.878;2023-06-22T12:32:58;18.88;;;10.00;;
23282;SDS011;11810;51.178;3.878;2023-06-22T12:35:24;15.05;;;10.43;;
23282;SDS011;11810;51.178;3.878;2023-06-22T12:37:50;14.48;;;10.80;;
23282;SDS011;11810;51.178;3.878;2023-06-22T12:40:16;17.90;;;11.68;;
23282;SDS011;11810;51.178;3.878;2023-06-22T12:42:42;14.95;;;10.68;;
23282;SDS011;11810;51.178;3.878;2023-06-22T12:45:10;16.30;;;12.65;;
23282;SDS011;11810;51.178;3.878;2023-06-22T12:47:36;17.17;;;11.82;;
23282;SDS011;11810;51.178;3.878;2023-06-22T12:50:02;17.45;;;11.45;;
23282;SDS011;11810;51.178;3.878;2023-06-22T12:52:30;15.80;;;12.15;;
23282;SDS011;11810;51.178;3.878;2023-06-22T12:54:57;20.98;;;12.57;;
23282;SDS011;11810;51.178;3.878;2023-06-22T12:57:23;16.08;;;12.73;;
23282;SDS011;11810;51.178;3.878;2023-06-22T12:59:50;20.70;;;13.27;;
23282;SDS011;11810;51.178;3.878;2023-06-22T13:02:16;17.92;;;12.68;;
23282;SDS011;11810;51.178;3.878;2023-06-22T13:04:42;22.73;;;15.82;;
23282;SDS011;11810;51.178;3.878;2023-06-22T13:07:08;27.27;;;15.60;;
23282;SDS011;11810;51.178;3.878;2023-06-22T13:09:35;23.02;;;16.85;;
23282;SDS011;11810;51.178;3.878;2023-06-22T13:12:02;23.60;;;17.13;;
23282;SDS011;11810;51.178;3.878;2023-06-22T13:14:28;22.83;;;16.30;;
23282;SDS011;11810;51.178;3.878;2023-06-22T13:16:54;21.95;;;16.60;;
23282;SDS011;11810;51.178;3.878;2023-06-22T13:19:20;24.73;;;18.23;;
23282;SDS011;11810;51.178;3.878;2023-06-22T13:21:46;22.95;;;18.67;;
23282;SDS011;11810;51.178;3.878;2023-06-22T13:24:12;23.95;;;18.30;;
23282;SDS011;11810;51.178;3.878;2023-06-22T13:26:38;28.17;;;19.83;;
23282;SDS011;11810;51.178;3.878;2023-06-22T13:29:04;24.42;;;19.45;;
23282;SDS011;11810;51.178;3.878;2023-06-22T13:31:30;25.73;;;19.20;;
23282;SDS011;11810;51.178;3.878;2023-06-22T13:33:56;30.85;;;20.75;;
23282;SDS011;11810;51.178;3.878;2023-06-22T13:36:22;28.95;;;21.75;;
23282;SDS011;11810;51.178;3.878;2023-06-22T13:38:48;28.08;;;19.80;;
23282;SDS011;11810;51.178;3.878;2023-06-22T13:41:14;28.27;;;20.65;;
23282;SDS011;11810;51.178;3.878;2023-06-22T13:43:40;29.23;;;22.23;;
23282;SDS011;11810;51.178;3.878;2023-06-22T13:46:06;27.33;;;21.15;;
23282;SDS011;11810;51.178;3.878;2023-06-22T13:48:32;28.20;;;21.92;;
23282;SDS011;11810;51.178;3.878;2023-06-22T13:50:58;25.95;;;20.83;;
23282;SDS011;11810;51.178;3.878;2023-06-22T13:53:24;29.17;;;22.85;;
23282;SDS011;11810;51.178;3.878;2023-06-22T13:55:51;29.35;;;22.95;;
23282;SDS011;11810;51.178;3.878;2023-06-22T13:58:17;30.58;;;24.23;;
23282;SDS011;11810;51.178;3.878;2023-06-22T14:00:45;31.38;;;23.67;;
23282;SDS011;11810;51.178;3.878;2023-06-22T14:03:11;28.98;;;24.23;;
23282;SDS011;11810;51.178;3.878;2023-06-22T14:05:37;32.80;;;26.38;;
23282;SDS011;11810;51.178;3.878;2023-06-22T14:08:03;33.58;;;27.48;;
23282;SDS011;11810;51.178;3.878;2023-06-22T14:10:29;33.83;;;27.33;;
23282;SDS011;11810;51.178;3.878;2023-06-22T14:12:54;34.83;;;28.23;;
23282;SDS011;11810;51.178;3.878;2023-06-22T14:15:20;36.45;;;27.63;;
23282;SDS011;11810;51.178;3.878;2023-06-22T14:17:46;36.58;;;28.88;;
23282;SDS011;11810;51.178;3.878;2023-06-22T14:20:12;35.35;;;29.60;;
23282;SDS011;11810;51.178;3.878;2023-06-22T14:22:38;34.92;;;29.38;;
23282;SDS011;11810;51.178;3.878;2023-06-22T14:25:05;40.40;;;30.20;;
23282;SDS011;11810;51.178;3.878;2023-06-22T14:27:31;40.38;;;29.98;;